sensor_id;sensor_type;location;lat;lon;timestamp;temperature;humidity
45849;DHT22;31567;54.600;9.842;2023-12-20T00:02:02;6.30;99.90
45849;DHT22;31567;54.600;9.842;2023-12-20T00:05:42;6.30;99.90
45849;DHT22;31567;54.600;9.842;2023-12-20T00:09:21;6.30;99.90
45849;DHT22;31567;54.600;9.842;2023-12-20T00:13:01;6.30;99.90
45849;DHT22;31567;54.600;9.842;2023-12-20T00:16:40;6.30;99.90
45849;DHT22;31567;54.600;9.842;2023-12-20T00:20:20;6.30;99.90
45849;DHT22;31567;54.600;9.842;2023-12-20T00:23:59;6.30;99.90
45849;DHT22;31567;54.600;9.842;2023-12-20T00:27:39;6.40;99.90
45849;DHT22;31567;54.600;9.842;2023-12-20T00:31:19;6.30;99.90
45849;DHT22;31567;54.600;9.842;2023-12-20T00:34:58;6.30;99.90
45849;DHT22;31567;54.600;9.842;2023-12-20T00:38:38;6.30;99.90
45849;DHT22;31567;54.600;9.842;2023-12-20T00:42:17;6.30;99.90
45849;DHT22;31567;54.600;9.842;2023-12-20T00:45:57;6.30;99.90
45849;DHT22;31567;54.600;9.842;2023-12-20T00:49:39;6.30;99.90
45849;DHT22;31567;54.600;9.842;2023-12-20T00:53:18;6.30;99.90
45849;DHT22;31567;54.600;9.842;2023-12-20T00:56:58;6.30;99.90
45849;DHT22;31567;54.600;9.842;2023-12-20T01:00:37;6.30;99.90
45849;DHT22;31567;54.600;9.842;2023-12-20T01:04:17;6.40;99.90
45849;DHT22;31567;54.600;9.842;2023-12-20T01:07:57;6.40;99.90
45849;DHT22;31567;54.600;9.842;2023-12-20T01:11:36;6.40;99.90
45849;DHT22;31567;54.600;9.842;2023-12-20T01:15:16;6.50;99.90
45849;DHT22;31567;54.600;9.842;2023-12-20T01:18:55;6.50;99.90
45849;DHT22;31567;54.600;9.842;2023-12-20T01:22:35;6.60;99.90
45849;DHT22;31567;54.600;9.842;2023-12-20T01:26:15;6.60;99.90
45849;DHT22;31567;54.600;9.842;2023-12-20T01:29:54;6.70;99.90
45849;DHT22;31567;54.600;9.842;2023-12-20T01:33:34;6.70;99.90
45849;DHT22;31567;54.600;9.842;2023-12-20T01:37:13;6.70;99.90
45849;DHT22;31567;54.600;9.842;2023-12-20T01:40:53;6.70;99.90
45849;DHT22;31567;54.600;9.842;2023-12-20T01:44:33;6.70;99.90
45849;DHT22;31567;54.600;9.842;2023-12-20T01:48:13;6.70;99.90
45849;DHT22;31567;54.600;9.842;2023-12-20T01:51:54;6.80;99.90
45849;DHT22;31567;54.600;9.842;2023-12-20T01:55:36;6.80;99.90
45849;DHT22;31567;54.600;9.842;2023-12-20T01:59:18;6.80;99.90
45849;DHT22;31567;54.600;9.842;2023-12-20T02:03:01;6.80;99.90
45849;DHT22;31567;54.600;9.842;2023-12-20T02:06:42;6.80;99.90
45849;DHT22;31567;54.600;9.842;2023-12-20T02:10:23;6.80;99.90
45849;DHT22;31567;54.600;9.842;2023-12-20T02:14:03;6.90;99.90
45849;DHT22;31567;54.600;9.842;2023-12-20T02:17:44;7.00;99.90
45849;DHT22;31567;54.600;9.842;2023-12-20T02:21:34;6.90;99.90
45849;DHT22;31567;54.600;9.842;2023-12-20T02:25:14;7.00;99.90
45849;DHT22;31567;54.600;9.842;2023-12-20T02:28:54;7.00;99.90
45849;DHT22;31567;54.600;9.842;2023-12-20T02:32:34;7.10;99.90
45849;DHT22;31567;54.600;9.842;2023-12-20T02:36:13;7.10;99.90
45849;DHT22;31567;54.600;9.842;2023-12-20T02:39:53;7.10;99.90
45849;DHT22;31567;54.600;9.842;2023-12-20T02:43:32;7.10;99.90
45849;DHT22;31567;54.600;9.842;2023-12-20T02:47:12;7.10;99.90
45849;DHT22;31567;54.600;9.842;2023-12-20T02:50:51;7.10;99.90
45849;DHT22;31567;54.600;9.842;2023-12-20T02:54:31;7.10;99.90
45849;DHT22;31567;54.600;9.842;2023-12-20T02:58:11;7.10;99.90
45849;DHT22;31567;54.600;9.842;2023-12-20T03:01:50;7.10;99.90
45849;DHT22;31567;54.600;9.842;2023-12-20T03:05:30;7.10;99.90
45849;DHT22;31567;54.600;9.842;2023-12-20T03:09:09;7.20;99.90
45849;DHT22;31567;54.600;9.842;2023-12-20T03:12:49;7.20;99.90
45849;DHT22;31567;54.600;9.842;2023-12-20T03:16:28;7.20;99.90
45849;DHT22;31567;54.600;9.842;2023-12-20T03:20:08;7.10;99.90
45849;DHT22;31567;54.600;9.842;2023-12-20T03:23:48;7.20;99.90
45849;DHT22;31567;54.600;9.842;2023-12-20T03:27:27;7.20;99.90
45849;DHT22;31567;54.600;9.842;2023-12-20T03:31:07;7.30;99.90
45849;DHT22;31567;54.600;9.842;2023-12-20T03:34:46;7.30;99.90
45849;DHT22;31567;54.600;9.842;2023-12-20T03:38:27;7.30;99.90
45849;DHT22;31567;54.600;9.842;2023-12-20T03:42:07;7.30;99.90
45849;DHT22;31567;54.600;9.842;2023-12-20T03:45:46;7.30;99.90
45849;DHT22;31567;54.600;9.842;2023-12-20T03:49:26;7.20;99.90
45849;DHT22;31567;54.600;9.842;2023-12-20T03:53:05;7.30;99.90
45849;DHT22;31567;54.600;9.842;2023-12-20T03:56:45;7.30;99.90
45849;DHT22;31567;54.600;9.842;2023-12-20T04:00:24;7.20;99.90
45849;DHT22;31567;54.600;9.842;2023-12-20T04:04:04;7.30;99.90
45849;DHT22;31567;54.600;9.842;2023-12-20T04:07:43;7.20;99.90
45849;DHT22;31567;54.600;9.842;2023-12-20T04:11:23;7.30;99.90
45849;DHT22;31567;54.600;9.842;2023-12-20T04:15:03;7.40;99.90
45849;DHT22;31567;54.600;9.842;2023-12-20T04:18:48;7.30;99.90
45849;DHT22;31567;54.600;9.842;2023-12-20T04:22:27;7.40;99.90
45849;DHT22;31567;54.600;9.842;2023-12-20T04:26:07;7.40;99.90
45849;DHT22;31567;54.600;9.842;2023-12-20T04:29:46;7.40;99.90
45849;DHT22;31567;54.600;9.842;2023-12-20T04:33:26;7.40;99.90
45849;DHT22;31567;54.600;9.842;2023-12-20T04:37:06;7.40;99.90
45849;DHT22;31567;54.600;9.842;2023-12-20T04:40:45;7.40;99.90
45849;DHT22;31567;54.600;9.842;2023-12-20T04:44:25;7.40;99.90
45849;DHT22;31567;54.600;9.842;2023-12-20T04:48:05;7.30;99.90
45849;DHT22;31567;54.600;9.842;2023-12-20T04:51:44;7.30;99.90
45849;DHT22;31567;54.600;9.842;2023-12-20T04:55:24;7.20;99.90
45849;DHT22;31567;54.600;9.842;2023-12-20T04:59:03;7.20;99.90
45849;DHT22;31567;54.600;9.842;2023-12-20T05:02:43;7.10;99.90
45849;DHT22;31567;54.600;9.842;2023-12-20T05:06:22;7.10;99.90
45849;DHT22;31567;54.600;9.842;2023-12-20T05:10:03;7.10;99.90
45849;DHT22;31567;54.600;9.842;2023-12-20T05:13:43;7.20;99.90
45849;DHT22;31567;54.600;9.842;2023-12-20T05:17:23;7.20;99.90
45849;DHT22;31567;54.600;9.842;2023-12-20T05:21:02;7.20;99.90
45849;DHT22;31567;54.600;9.842;2023-12-20T05:24:42;7.30;99.90
45849;DHT22;31567;54.600;9.842;2023-12-20T05:28:22;7.40;99.90
45849;DHT22;31567;54.600;9.842;2023-12-20T05:32:01;7.40;99.90
45849;DHT22;31567;54.600;9.842;2023-12-20T05:35:43;7.40;99.90
45849;DHT22;31567;54.600;9.842;2023-12-20T05:39:22;7.50;99.90
45849;DHT22;31567;54.600;9.842;2023-12-20T05:43:02;7.50;99.90
45849;DHT22;31567;54.600;9.842;2023-12-20T05:46:41;7.50;99.90
45849;DHT22;31567;54.600;9.842;2023-12-20T05:50:21;7.40;99.90
45849;DHT22;31567;54.600;9.842;2023-12-20T05:54:00;7.30;99.90
45849;DHT22;31567;54.600;9.842;2023-12-20T05:57:40;7.30;99.90
45849;DHT22;31567;54.600;9.842;2023-12-20T06:01:19;7.20;99.90
45849;DHT22;31567;54.600;9.842;2023-12-20T06:04:59;7.10;99.90
45849;DHT22;31567;54.600;9.842;2023-12-20T06:08:39;7.00;99.90
45849;DHT22;31567;54.600;9.842;2023-12-20T06:12:18;7.00;99.90
45849;DHT22;31567;54.600;9.842;2023-12-20T06:15:58;7.00;99.90
45849;DHT22;31567;54.600;9.842;2023-12-20T06:19:37;6.90;99.90
45849;DHT22;31567;54.600;9.842;2023-12-20T06:23:17;6.90;99.90
45849;DHT22;31567;54.600;9.842;2023-12-20T06:26:56;6.90;99.90
45849;DHT22;31567;54.600;9.842;2023-12-20T06:30:36;6.90;99.90
45849;DHT22;31567;54.600;9.842;2023-12-20T06:34:16;6.90;99.90
45849;DHT22;31567;54.600;9.842;2023-12-20T06:37:55;6.80;99.90
45849;DHT22;31567;54.600;9.842;2023-12-20T06:41:35;6.90;99.90
45849;DHT22;31567;54.600;9.842;2023-12-20T06:45:14;6.90;99.90
45849;DHT22;31567;54.600;9.842;2023-12-20T06:48:54;6.90;99.90
45849;DHT22;31567;54.600;9.842;2023-12-20T06:52:34;6.90;99.90
45849;DHT22;31567;54.600;9.842;2023-12-20T06:56:14;6.90;99.90
45849;DHT22;31567;54.600;9.842;2023-12-20T06:59:55;6.90;99.90
45849;DHT22;31567;54.600;9.842;2023-12-20T07:03:35;6.90;99.90
45849;DHT22;31567;54.600;9.842;2023-12-20T07:07:14;6.80;99.90
45849;DHT22;31567;54.600;9.842;2023-12-20T07:10:54;6.80;99.90
45849;DHT22;31567;54.600;9.842;2023-12-20T07:14:33;6.90;99.90
45849;DHT22;31567;54.600;9.842;2023-12-20T07:18:13;6.90;99.90
45849;DHT22;31567;54.600;9.842;2023-12-20T07:21:52;6.90;99.90
45849;DHT22;31567;54.600;9.842;2023-12-20T07:25:32;6.90;99.90
45849;DHT22;31567;54.600;9.842;2023-12-20T07:29:12;7.00;99.90
45849;DHT22;31567;54.600;9.842;2023-12-20T07:32:51;7.00;99.90
45849;DHT22;31567;54.600;9.842;2023-12-20T07:36:31;7.10;99.90
45849;DHT22;31567;54.600;9.842;2023-12-20T07:40:11;7.10;99.90
45849;DHT22;31567;54.600;9.842;2023-12-20T07:43:51;7.20;99.90
45849;DHT22;31567;54.600;9.842;2023-12-20T07:47:30;7.10;99.90
45849;DHT22;31567;54.600;9.842;2023-12-20T07:51:10;7.10;99.90
45849;DHT22;31567;54.600;9.842;2023-12-20T07:54:49;7.10;99.90
45849;DHT22;31567;54.600;9.842;2023-12-20T07:58:29;7.10;99.90
45849;DHT22;31567;54.600;9.842;2023-12-20T08:02:10;7.20;99.90
45849;DHT22;31567;54.600;9.842;2023-12-20T08:05:50;7.20;99.90
45849;DHT22;31567;54.600;9.842;2023-12-20T08:09:29;7.20;99.90
45849;DHT22;31567;54.600;9.842;2023-12-20T08:13:09;7.20;99.90
45849;DHT22;31567;54.600;9.842;2023-12-20T08:16:48;7.20;99.90
45849;DHT22;31567;54.600;9.842;2023-12-20T08:20:28;6.90;99.90
45849;DHT22;31567;54.600;9.842;2023-12-20T08:24:08;6.80;99.90
45849;DHT22;31567;54.600;9.842;2023-12-20T08:27:47;6.70;99.90
45849;DHT22;31567;54.600;9.842;2023-12-20T08:31:27;6.60;99.90
45849;DHT22;31567;54.600;9.842;2023-12-20T08:35:06;6.50;99.90
45849;DHT22;31567;54.600;9.842;2023-12-20T08:38:46;6.40;99.90
45849;DHT22;31567;54.600;9.842;2023-12-20T08:42:26;6.40;99.90
45849;DHT22;31567;54.600;9.842;2023-12-20T08:46:10;6.40;99.90
45849;DHT22;31567;54.600;9.842;2023-12-20T08:49:50;6.40;99.90
45849;DHT22;31567;54.600;9.842;2023-12-20T08:53:29;6.40;99.90
45849;DHT22;31567;54.600;9.842;2023-12-20T08:57:09;6.30;99.90
45849;DHT22;31567;54.600;9.842;2023-12-20T09:00:49;6.40;99.90
45849;DHT22;31567;54.600;9.842;2023-12-20T09:04:28;6.30;99.90
45849;DHT22;31567;54.600;9.842;2023-12-20T09:08:08;6.30;99.90
45849;DHT22;31567;54.600;9.842;2023-12-20T09:11:49;6.20;99.90
45849;DHT22;31567;54.600;9.842;2023-12-20T09:15:30;6.20;99.90
45849;DHT22;31567;54.600;9.842;2023-12-20T09:19:10;6.10;99.90
45849;DHT22;31567;54.600;9.842;2023-12-20T09:22:49;6.10;99.90
45849;DHT22;31567;54.600;9.842;2023-12-20T09:26:29;6.10;99.90
45849;DHT22;31567;54.600;9.842;2023-12-20T09:30:09;6.10;99.90
45849;DHT22;31567;54.600;9.842;2023-12-20T09:33:49;6.20;99.90
45849;DHT22;31567;54.600;9.842;2023-12-20T09:37:28;6.20;99.90
45849;DHT22;31567;54.600;9.842;2023-12-20T09:41:08;6.20;99.90
45849;DHT22;31567;54.600;9.842;2023-12-20T09:44:47;6.20;99.90
45849;DHT22;31567;54.600;9.842;2023-12-20T09:48:27;6.30;99.90
45849;DHT22;31567;54.600;9.842;2023-12-20T09:52:09;6.40;99.90
45849;DHT22;31567;54.600;9.842;2023-12-20T09:55:51;6.50;99.90
45849;DHT22;31567;54.600;9.842;2023-12-20T09:59:31;6.50;99.90
45849;DHT22;31567;54.600;9.842;2023-12-20T10:03:11;6.60;99.90
45849;DHT22;31567;54.600;9.842;2023-12-20T10:06:53;6.50;99.90
45849;DHT22;31567;54.600;9.842;2023-12-20T10:10:32;6.40;99.90
45849;DHT22;31567;54.600;9.842;2023-12-20T10:14:12;6.30;99.90
45849;DHT22;31567;54.600;9.842;2023-12-20T10:17:51;6.30;99.90
45849;DHT22;31567;54.600;9.842;2023-12-20T10:21:31;6.30;99.90
45849;DHT22;31567;54.600;9.842;2023-12-20T10:25:11;6.30;99.90
45849;DHT22;31567;54.600;9.842;2023-12-20T10:28:55;6.30;99.90
45849;DHT22;31567;54.600;9.842;2023-12-20T10:32:35;6.30;99.90
45849;DHT22;31567;54.600;9.842;2023-12-20T10:36:14;6.30;99.90
45849;DHT22;31567;54.600;9.842;2023-12-20T10:39:54;6.30;99.90
45849;DHT22;31567;54.600;9.842;2023-12-20T10:43:37;6.30;99.90
45849;DHT22;31567;54.600;9.842;2023-12-20T10:47:17;6.30;99.90
45849;DHT22;31567;54.600;9.842;2023-12-20T10:50:58;6.30;99.90
45849;DHT22;31567;54.600;9.842;2023-12-20T10:54:39;6.40;99.90
45849;DHT22;31567;54.600;9.842;2023-12-20T10:58:20;6.50;99.90
45849;DHT22;31567;54.600;9.842;2023-12-20T11:02:02;6.50;99.90
45849;DHT22;31567;54.600;9.842;2023-12-20T11:09:58;6.60;99.90
45849;DHT22;31567;54.600;9.842;2023-12-20T11:13:53;6.60;99.90
45849;DHT22;31567;54.600;9.842;2023-12-20T11:17:34;6.60;99.90
45849;DHT22;31567;54.600;9.842;2023-12-20T11:21:14;6.60;99.90
45849;DHT22;31567;54.600;9.842;2023-12-20T11:24:59;6.60;99.90
45849;DHT22;31567;54.600;9.842;2023-12-20T11:28:41;6.80;99.90
45849;DHT22;31567;54.600;9.842;2023-12-20T11:36:13;6.80;99.90
45849;DHT22;31567;54.600;9.842;2023-12-20T11:39:56;6.80;99.90
45849;DHT22;31567;54.600;9.842;2023-12-20T11:43:39;6.90;99.90
45849;DHT22;31567;54.600;9.842;2023-12-20T11:47:19;7.00;99.90
45849;DHT22;31567;54.600;9.842;2023-12-20T11:50:59;7.00;99.90
45849;DHT22;31567;54.600;9.842;2023-12-20T11:54:39;7.00;99.90
45849;DHT22;31567;54.600;9.842;2023-12-20T11:58:19;6.90;99.90
45849;DHT22;31567;54.600;9.842;2023-12-20T12:01:58;7.00;99.90
45849;DHT22;31567;54.600;9.842;2023-12-20T12:05:40;6.90;99.90
45849;DHT22;31567;54.600;9.842;2023-12-20T12:09:19;6.90;99.90
45849;DHT22;31567;54.600;9.842;2023-12-20T12:12:59;6.80;99.90
45849;DHT22;31567;54.600;9.842;2023-12-20T12:16:42;6.80;99.90
45849;DHT22;31567;54.600;9.842;2023-12-20T12:20:23;6.80;99.90
45849;DHT22;31567;54.600;9.842;2023-12-20T12:24:10;6.90;99.90
45849;DHT22;31567;54.600;9.842;2023-12-20T12:27:50;6.90;99.90
45849;DHT22;31567;54.600;9.842;2023-12-20T12:31:30;6.90;99.90
45849;DHT22;31567;54.600;9.842;2023-12-20T12:35:10;7.00;99.90
45849;DHT22;31567;54.600;9.842;2023-12-20T12:38:49;7.00;99.90
45849;DHT22;31567;54.600;9.842;2023-12-20T12:42:29;7.00;99.90
45849;DHT22;31567;54.600;9.842;2023-12-20T12:46:08;7.00;99.90
45849;DHT22;31567;54.600;9.842;2023-12-20T12:49:51;7.10;99.90
45849;DHT22;31567;54.600;9.842;2023-12-20T12:53:30;7.10;99.90
45849;DHT22;31567;54.600;9.842;2023-12-20T12:57:11;7.00;99.90
45849;DHT22;31567;54.600;9.842;2023-12-20T13:00:50;7.00;99.90
45849;DHT22;31567;54.600;9.842;2023-12-20T13:04:30;7.00;99.90
45849;DHT22;31567;54.600;9.842;2023-12-20T13:08:10;6.90;99.90
45849;DHT22;31567;54.600;9.842;2023-12-20T13:11:51;7.00;99.90
45849;DHT22;31567;54.600;9.842;2023-12-20T13:15:31;7.10;99.90
45849;DHT22;31567;54.600;9.842;2023-12-20T13:19:10;7.10;99.90
45849;DHT22;31567;54.600;9.842;2023-12-20T13:22:50;7.20;99.90
45849;DHT22;31567;54.600;9.842;2023-12-20T13:26:29;7.10;99.90
45849;DHT22;31567;54.600;9.842;2023-12-20T13:30:09;7.10;99.90
45849;DHT22;31567;54.600;9.842;2023-12-20T13:33:49;7.10;99.90
45849;DHT22;31567;54.600;9.842;2023-12-20T13:37:28;7.20;99.90
45849;DHT22;31567;54.600;9.842;2023-12-20T13:41:08;7.20;99.90
45849;DHT22;31567;54.600;9.842;2023-12-20T13:44:48;7.20;99.90
45849;DHT22;31567;54.600;9.842;2023-12-20T13:48:27;7.20;99.90
45849;DHT22;31567;54.600;9.842;2023-12-20T13:52:07;7.20;99.90
45849;DHT22;31567;54.600;9.842;2023-12-20T13:55:46;7.20;99.90
45849;DHT22;31567;54.600;9.842;2023-12-20T13:59:26;7.10;99.70
45849;DHT22;31567;54.600;9.842;2023-12-20T14:03:05;7.10;99.90
45849;DHT22;31567;54.600;9.842;2023-12-20T14:06:45;7.10;99.80
45849;DHT22;31567;54.600;9.842;2023-12-20T14:10:25;7.10;99.90
45849;DHT22;31567;54.600;9.842;2023-12-20T14:14:07;7.00;99.90
45849;DHT22;31567;54.600;9.842;2023-12-20T14:17:47;6.90;99.90
45849;DHT22;31567;54.600;9.842;2023-12-20T14:21:26;6.90;99.90
45849;DHT22;31567;54.600;9.842;2023-12-20T14:25:06;6.80;99.90
45849;DHT22;31567;54.600;9.842;2023-12-20T14:28:46;6.80;99.90
45849;DHT22;31567;54.600;9.842;2023-12-20T14:32:26;6.80;99.90
45849;DHT22;31567;54.600;9.842;2023-12-20T14:36:07;6.80;99.90
45849;DHT22;31567;54.600;9.842;2023-12-20T14:39:47;6.80;99.90
45849;DHT22;31567;54.600;9.842;2023-12-20T14:43:26;6.90;99.90
45849;DHT22;31567;54.600;9.842;2023-12-20T14:47:06;6.80;99.90
45849;DHT22;31567;54.600;9.842;2023-12-20T14:50:46;6.80;99.90
45849;DHT22;31567;54.600;9.842;2023-12-20T14:54:27;6.80;99.90
45849;DHT22;31567;54.600;9.842;2023-12-20T14:58:07;6.80;99.90
45849;DHT22;31567;54.600;9.842;2023-12-20T15:01:47;6.80;99.90
45849;DHT22;31567;54.600;9.842;2023-12-20T15:05:26;6.80;99.90
45849;DHT22;31567;54.600;9.842;2023-12-20T15:09:06;6.80;99.90
45849;DHT22;31567;54.600;9.842;2023-12-20T15:12:45;6.80;99.90
45849;DHT22;31567;54.600;9.842;2023-12-20T15:16:25;6.80;99.90
45849;DHT22;31567;54.600;9.842;2023-12-20T15:20:05;6.80;99.90
45849;DHT22;31567;54.600;9.842;2023-12-20T15:23:45;6.80;99.90
45849;DHT22;31567;54.600;9.842;2023-12-20T15:27:35;6.70;99.90
45849;DHT22;31567;54.600;9.842;2023-12-20T15:31:16;6.80;99.90
45849;DHT22;31567;54.600;9.842;2023-12-20T15:34:56;6.80;99.90
45849;DHT22;31567;54.600;9.842;2023-12-20T15:38:35;6.80;99.90
45849;DHT22;31567;54.600;9.842;2023-12-20T15:42:15;6.80;99.90
45849;DHT22;31567;54.600;9.842;2023-12-20T15:45:55;6.80;99.90
45849;DHT22;31567;54.600;9.842;2023-12-20T15:49:34;6.90;99.90
45849;DHT22;31567;54.600;9.842;2023-12-20T15:53:14;6.80;99.90
45849;DHT22;31567;54.600;9.842;2023-12-20T15:56:53;6.90;99.90
45849;DHT22;31567;54.600;9.842;2023-12-20T16:00:33;7.00;99.90
45849;DHT22;31567;54.600;9.842;2023-12-20T16:04:12;7.00;99.90
45849;DHT22;31567;54.600;9.842;2023-12-20T16:07:52;7.00;99.90
45849;DHT22;31567;54.600;9.842;2023-12-20T16:11:31;6.90;99.90
45849;DHT22;31567;54.600;9.842;2023-12-20T16:15:11;6.90;99.90
45849;DHT22;31567;54.600;9.842;2023-12-20T16:18:50;6.90;99.90
45849;DHT22;31567;54.600;9.842;2023-12-20T16:22:30;6.90;99.90
45849;DHT22;31567;54.600;9.842;2023-12-20T16:26:12;6.80;99.90
45849;DHT22;31567;54.600;9.842;2023-12-20T16:29:51;6.80;99.90
45849;DHT22;31567;54.600;9.842;2023-12-20T16:33:32;6.80;99.90
45849;DHT22;31567;54.600;9.842;2023-12-20T16:37:12;6.80;99.90
45849;DHT22;31567;54.600;9.842;2023-12-20T16:40:51;6.80;99.90
45849;DHT22;31567;54.600;9.842;2023-12-20T16:44:31;6.80;99.90
45849;DHT22;31567;54.600;9.842;2023-12-20T16:48:13;6.80;99.90
45849;DHT22;31567;54.600;9.842;2023-12-20T16:51:53;6.80;99.90
45849;DHT22;31567;54.600;9.842;2023-12-20T16:55:35;6.80;99.90
45849;DHT22;31567;54.600;9.842;2023-12-20T16:59:14;6.80;99.90
45849;DHT22;31567;54.600;9.842;2023-12-20T17:02:54;6.90;99.90
45849;DHT22;31567;54.600;9.842;2023-12-20T17:06:34;6.90;99.90
45849;DHT22;31567;54.600;9.842;2023-12-20T17:10:14;6.90;99.90
45849;DHT22;31567;54.600;9.842;2023-12-20T17:13:53;6.90;99.90
45849;DHT22;31567;54.600;9.842;2023-12-20T17:17:33;6.90;99.90
45849;DHT22;31567;54.600;9.842;2023-12-20T17:21:12;6.90;99.90
45849;DHT22;31567;54.600;9.842;2023-12-20T17:24:52;6.90;99.90
45849;DHT22;31567;54.600;9.842;2023-12-20T17:28:31;6.90;99.90
45849;DHT22;31567;54.600;9.842;2023-12-20T17:32:11;6.90;99.90
45849;DHT22;31567;54.600;9.842;2023-12-20T17:35:51;6.80;99.90
45849;DHT22;31567;54.600;9.842;2023-12-20T17:39:30;6.80;99.90
45849;DHT22;31567;54.600;9.842;2023-12-20T17:43:10;6.90;99.90
45849;DHT22;31567;54.600;9.842;2023-12-20T17:46:49;6.80;99.90
45849;DHT22;31567;54.600;9.842;2023-12-20T17:50:29;6.80;99.90
45849;DHT22;31567;54.600;9.842;2023-12-20T17:54:08;6.80;99.90
45849;DHT22;31567;54.600;9.842;2023-12-20T17:57:48;6.80;99.90
45849;DHT22;31567;54.600;9.842;2023-12-20T18:01:27;6.80;99.90
45849;DHT22;31567;54.600;9.842;2023-12-20T18:05:07;6.80;99.90
45849;DHT22;31567;54.600;9.842;2023-12-20T18:08:47;6.80;99.90
45849;DHT22;31567;54.600;9.842;2023-12-20T18:12:27;6.80;99.90
45849;DHT22;31567;54.600;9.842;2023-12-20T18:16:06;6.80;99.90
45849;DHT22;31567;54.600;9.842;2023-12-20T18:19:49;6.80;99.90
45849;DHT22;31567;54.600;9.842;2023-12-20T18:23:28;6.70;99.90
45849;DHT22;31567;54.600;9.842;2023-12-20T18:27:08;6.70;99.90
45849;DHT22;31567;54.600;9.842;2023-12-20T18:30:48;6.70;99.90
45849;DHT22;31567;54.600;9.842;2023-12-20T18:34:28;6.70;99.90
45849;DHT22;31567;54.600;9.842;2023-12-20T18:38:09;6.60;99.90
45849;DHT22;31567;54.600;9.842;2023-12-20T18:41:48;6.50;99.90
45849;DHT22;31567;54.600;9.842;2023-12-20T18:45:29;6.50;99.90
45849;DHT22;31567;54.600;9.842;2023-12-20T18:49:08;6.40;99.90
45849;DHT22;31567;54.600;9.842;2023-12-20T18:52:48;6.40;99.90
45849;DHT22;31567;54.600;9.842;2023-12-20T18:56:27;6.40;99.90
45849;DHT22;31567;54.600;9.842;2023-12-20T19:00:08;6.40;99.90
45849;DHT22;31567;54.600;9.842;2023-12-20T19:03:49;6.30;99.90
45849;DHT22;31567;54.600;9.842;2023-12-20T19:07:28;6.30;99.90
45849;DHT22;31567;54.600;9.842;2023-12-20T19:11:08;6.30;99.90
45849;DHT22;31567;54.600;9.842;2023-12-20T19:14:48;6.20;99.90
45849;DHT22;31567;54.600;9.842;2023-12-20T19:18:27;6.30;99.90
45849;DHT22;31567;54.600;9.842;2023-12-20T19:22:07;6.30;99.90
45849;DHT22;31567;54.600;9.842;2023-12-20T19:25:46;6.30;99.90
45849;DHT22;31567;54.600;9.842;2023-12-20T19:29:26;6.30;99.90
45849;DHT22;31567;54.600;9.842;2023-12-20T19:33:05;6.40;99.90
45849;DHT22;31567;54.600;9.842;2023-12-20T19:36:45;6.40;99.90
45849;DHT22;31567;54.600;9.842;2023-12-20T19:40:25;6.40;99.90
45849;DHT22;31567;54.600;9.842;2023-12-20T19:44:04;6.40;99.90
45849;DHT22;31567;54.600;9.842;2023-12-20T19:47:49;6.40;99.90
45849;DHT22;31567;54.600;9.842;2023-12-20T19:51:29;6.40;99.90
45849;DHT22;31567;54.600;9.842;2023-12-20T19:55:09;6.40;99.90
45849;DHT22;31567;54.600;9.842;2023-12-20T19:58:49;6.40;99.90
45849;DHT22;31567;54.600;9.842;2023-12-20T20:02:28;6.40;99.90
45849;DHT22;31567;54.600;9.842;2023-12-20T20:06:09;6.50;99.90
45849;DHT22;31567;54.600;9.842;2023-12-20T20:09:49;6.50;99.90
45849;DHT22;31567;54.600;9.842;2023-12-20T20:13:29;6.50;99.90
45849;DHT22;31567;54.600;9.842;2023-12-20T20:17:08;6.50;99.90
45849;DHT22;31567;54.600;9.842;2023-12-20T20:20:48;6.60;99.90
45849;DHT22;31567;54.600;9.842;2023-12-20T20:24:28;6.60;99.90
45849;DHT22;31567;54.600;9.842;2023-12-20T20:28:07;6.60;99.90
45849;DHT22;31567;54.600;9.842;2023-12-20T20:31:47;6.60;99.90
45849;DHT22;31567;54.600;9.842;2023-12-20T20:35:26;6.60;99.90
45849;DHT22;31567;54.600;9.842;2023-12-20T20:39:06;6.60;99.90
45849;DHT22;31567;54.600;9.842;2023-12-20T20:42:46;6.70;99.90
45849;DHT22;31567;54.600;9.842;2023-12-20T20:46:25;6.60;99.90
45849;DHT22;31567;54.600;9.842;2023-12-20T20:50:07;6.70;99.90
45849;DHT22;31567;54.600;9.842;2023-12-20T20:53:47;6.60;99.90
45849;DHT22;31567;54.600;9.842;2023-12-20T20:57:26;6.70;99.90
45849;DHT22;31567;54.600;9.842;2023-12-20T21:01:06;6.70;99.90
45849;DHT22;31567;54.600;9.842;2023-12-20T21:04:46;6.70;99.90
45849;DHT22;31567;54.600;9.842;2023-12-20T21:08:28;6.70;99.90
45849;DHT22;31567;54.600;9.842;2023-12-20T21:12:08;6.80;99.90
45849;DHT22;31567;54.600;9.842;2023-12-20T21:15:48;6.80;99.90
45849;DHT22;31567;54.600;9.842;2023-12-20T21:19:27;6.80;99.90
45849;DHT22;31567;54.600;9.842;2023-12-20T21:23:07;6.80;99.90
45849;DHT22;31567;54.600;9.842;2023-12-20T21:26:49;6.80;99.90
45849;DHT22;31567;54.600;9.842;2023-12-20T21:30:29;6.80;99.90
45849;DHT22;31567;54.600;9.842;2023-12-20T21:34:13;6.90;99.90
45849;DHT22;31567;54.600;9.842;2023-12-20T21:37:53;6.90;99.90
45849;DHT22;31567;54.600;9.842;2023-12-20T21:41:32;7.00;99.90
45849;DHT22;31567;54.600;9.842;2023-12-20T21:45:12;7.00;99.90
45849;DHT22;31567;54.600;9.842;2023-12-20T21:48:51;7.10;99.90
45849;DHT22;31567;54.600;9.842;2023-12-20T21:52:31;7.10;99.90
45849;DHT22;31567;54.600;9.842;2023-12-20T21:56:11;7.20;99.90
45849;DHT22;31567;54.600;9.842;2023-12-20T21:59:50;7.10;99.90
45849;DHT22;31567;54.600;9.842;2023-12-20T22:03:30;7.20;99.90
45849;DHT22;31567;54.600;9.842;2023-12-20T22:07:09;7.30;99.90
45849;DHT22;31567;54.600;9.842;2023-12-20T22:10:49;7.20;99.90
45849;DHT22;31567;54.600;9.842;2023-12-20T22:14:29;7.30;99.90
45849;DHT22;31567;54.600;9.842;2023-12-20T22:18:09;7.30;99.90
45849;DHT22;31567;54.600;9.842;2023-12-20T22:21:48;7.30;99.90
45849;DHT22;31567;54.600;9.842;2023-12-20T22:25:28;7.40;99.90
45849;DHT22;31567;54.600;9.842;2023-12-20T22:29:07;7.40;99.90
45849;DHT22;31567;54.600;9.842;2023-12-20T22:32:47;7.40;99.90
45849;DHT22;31567;54.600;9.842;2023-12-20T22:36:26;7.40;99.90
45849;DHT22;31567;54.600;9.842;2023-12-20T22:40:07;7.30;99.90
45849;DHT22;31567;54.600;9.842;2023-12-20T22:43:48;7.40;99.90
45849;DHT22;31567;54.600;9.842;2023-12-20T22:47:28;7.30;99.90
45849;DHT22;31567;54.600;9.842;2023-12-20T22:51:08;7.30;99.90
45849;DHT22;31567;54.600;9.842;2023-12-20T22:54:48;7.20;99.90
45849;DHT22;31567;54.600;9.842;2023-12-20T22:58:27;7.30;99.90
45849;DHT22;31567;54.600;9.842;2023-12-20T23:02:07;7.20;99.90
45849;DHT22;31567;54.600;9.842;2023-12-20T23:05:47;7.20;99.90
45849;DHT22;31567;54.600;9.842;2023-12-20T23:09:27;7.30;99.90
45849;DHT22;31567;54.600;9.842;2023-12-20T23:13:06;7.30;99.90
45849;DHT22;31567;54.600;9.842;2023-12-20T23:16:46;7.30;99.90
45849;DHT22;31567;54.600;9.842;2023-12-20T23:20:25;7.30;99.90
45849;DHT22;31567;54.600;9.842;2023-12-20T23:24:05;7.40;99.90
45849;DHT22;31567;54.600;9.842;2023-12-20T23:27:45;7.40;99.90
45849;DHT22;31567;54.600;9.842;2023-12-20T23:31:26;7.50;99.90
45849;DHT22;31567;54.600;9.842;2023-12-20T23:35:06;7.50;99.90
45849;DHT22;31567;54.600;9.842;2023-12-20T23:38:46;7.50;99.90